Time;durP1;ratioP1;P1;durP2;ratioP2;P2;SDS_P1;SDS_P2;PMS_P1;PMS_P2;Temp;Humidity;BMP_temperature;BMP_pressure;BME280_temperature;BME280_humidity;BME280_pressure;Samples;Min_cycle;Max_cycle;Signal;HPM_P1;HPM_P2
2023/03/21 00:02:16;;;;;;;;;;;9.70;99.90;;;;;;8383648;28;20388;-68
2023/03/21 00:06:17;;;;;;;;;;;9.70;99.90;;;;;;8387233;28;19950;-69
2023/03/21 00:10:19;;;;;;;;;;;9.70;99.90;;;;;;8385222;28;19939;-69
2023/03/21 00:14:38;;;;;;;;;;;9.60;99.90;;;;;;8386320;28;19924;-69
2023/03/21 00:18:47;;;;;;;;;;;9.60;99.90;;;;;;8395919;28;20420;-69
2023/03/21 00:22:49;;;;;;;;;;;9.60;99.90;;;;;;8387380;28;20308;-69
2023/03/21 00:26:51;;;;;;;;;;;9.60;99.90;;;;;;8384443;28;19998;-68
2023/03/21 00:41:02;;;;;;;;;;;9.60;99.90;;;;;;8365665;28;19922;-69
2023/03/21 00:45:15;;;;;;;;;;;9.60;99.90;;;;;;8383217;28;20007;-69
2023/03/21 00:49:19;;;;;;;;;;;9.60;99.90;;;;;;8364483;28;20380;-69
2023/03/21 00:53:21;;;;;;;;;;;9.60;99.90;;;;;;8366786;28;19925;-69
2023/03/21 00:57:22;;;;;;;;;;;9.60;99.90;;;;;;8383610;28;19924;-69
2023/03/21 01:01:38;;;;;;;;;;;9.60;99.90;;;;;;8376035;28;19932;-69
2023/03/21 01:10:02;;;;;;;;;;;9.60;99.90;;;;;;8382697;28;19947;-69
2023/03/21 01:14:04;;;;;;;;;;;9.60;99.90;;;;;;8384836;28;19987;-69
2023/03/21 01:23:26;;;;;;;;;;;9.60;99.90;;;;;;8384189;28;20478;-68
2023/03/21 01:27:28;;;;;;;;;;;9.60;99.90;;;;;;8370808;28;19943;-69
2023/03/21 01:31:30;;;;;;;;;;;9.60;99.90;;;;;;8377573;28;19929;-69
2023/03/21 01:35:31;;;;;;;;;;;9.50;99.90;;;;;;8379969;28;20283;-68
2023/03/21 01:39:45;;;;;;;;;;;9.50;99.90;;;;;;8381039;28;20380;-69
2023/03/21 01:43:47;;;;;;;;;;;9.50;99.90;;;;;;8386692;28;19964;-69
2023/03/21 01:47:49;;;;;;;;;;;9.50;99.90;;;;;;8382996;28;19932;-69
2023/03/21 01:51:52;;;;;;;;;;;9.50;99.90;;;;;;8381548;28;19933;-69
2023/03/21 01:55:56;;;;;;;;;;;9.50;99.90;;;;;;8380252;28;19929;-69
2023/03/21 02:00:06;;;;;;;;;;;9.50;99.90;;;;;;8383441;28;19963;-69
2023/03/21 02:04:08;;;;;;;;;;;9.50;99.90;;;;;;8381184;28;20285;-69
2023/03/21 02:08:12;;;;;;;;;;;9.40;99.90;;;;;;8386814;28;20035;-69
2023/03/21 02:12:15;;;;;;;;;;;9.40;99.90;;;;;;8383930;28;19971;-69
2023/03/21 02:16:16;;;;;;;;;;;9.40;99.90;;;;;;8398918;28;19928;-68
2023/03/21 02:30:25;;;;;;;;;;;9.40;99.90;;;;;;8376438;28;20004;-69
2023/03/21 02:34:50;;;;;;;;;;;9.40;99.90;;;;;;8371642;28;19924;-69
2023/03/21 02:39:07;;;;;;;;;;;9.40;99.90;;;;;;8384706;28;20402;-68
2023/03/21 02:43:22;;;;;;;;;;;9.40;99.90;;;;;;8377357;28;19932;-69
2023/03/21 02:47:37;;;;;;;;;;;9.40;99.90;;;;;;8372914;28;19932;-69
2023/03/21 02:51:41;;;;;;;;;;;9.40;99.90;;;;;;8380335;28;20019;-68
2023/03/21 02:55:43;;;;;;;;;;;9.40;99.90;;;;;;8382574;28;19928;-69
2023/03/21 02:59:49;;;;;;;;;;;9.40;99.90;;;;;;8380982;28;20311;-69
2023/03/21 03:03:57;;;;;;;;;;;9.40;99.90;;;;;;8371629;28;19928;-69
2023/03/21 03:08:11;;;;;;;;;;;9.40;99.90;;;;;;8395994;28;20265;-69
2023/03/21 03:12:31;;;;;;;;;;;9.40;99.90;;;;;;8384834;28;20823;-69
2023/03/21 03:16:35;;;;;;;;;;;9.40;99.90;;;;;;8373583;28;19924;-69
2023/03/21 03:20:45;;;;;;;;;;;9.40;99.90;;;;;;8373302;28;20310;-69
2023/03/21 03:25:03;;;;;;;;;;;9.40;99.90;;;;;;8383083;28;20141;-69
2023/03/21 03:29:22;;;;;;;;;;;9.40;99.90;;;;;;8398867;28;19967;-69
2023/03/21 03:33:24;;;;;;;;;;;9.40;99.90;;;;;;8388027;28;19929;-69
2023/03/21 03:37:28;;;;;;;;;;;9.40;99.90;;;;;;8375771;28;19929;-69
2023/03/21 03:41:32;;;;;;;;;;;9.40;99.90;;;;;;8374644;28;19971;-69
2023/03/21 03:46:00;;;;;;;;;;;9.40;99.90;;;;;;8369806;28;19932;-69
2023/03/21 03:50:02;;;;;;;;;;;9.40;99.90;;;;;;8375150;28;20451;-68
2023/03/21 03:54:09;;;;;;;;;;;9.40;99.90;;;;;;8385937;28;19924;-68
2023/03/21 03:58:11;;;;;;;;;;;9.40;99.90;;;;;;8381303;28;19929;-68
2023/03/21 04:02:24;;;;;;;;;;;9.40;99.90;;;;;;8379835;28;19925;-69
2023/03/21 04:06:27;;;;;;;;;;;9.40;99.90;;;;;;8379265;28;20369;-69
2023/03/21 04:10:29;;;;;;;;;;;9.30;99.90;;;;;;8384804;28;20331;-69
2023/03/21 04:14:31;;;;;;;;;;;9.30;99.90;;;;;;8391611;28;20380;-69
2023/03/21 04:18:46;;;;;;;;;;;9.30;99.90;;;;;;8378936;28;19924;-69
2023/03/21 04:22:48;;;;;;;;;;;9.30;99.90;;;;;;8364799;28;19925;-69
2023/03/21 04:26:52;;;;;;;;;;;9.30;99.90;;;;;;8385405;28;19935;-69
2023/03/21 04:30:56;;;;;;;;;;;9.30;99.90;;;;;;8370185;28;20406;-69
2023/03/21 04:35:09;;;;;;;;;;;9.30;99.90;;;;;;8393727;28;20457;-69
2023/03/21 04:39:12;;;;;;;;;;;9.30;99.90;;;;;;8374407;28;20413;-69
2023/03/21 04:43:14;;;;;;;;;;;9.30;99.90;;;;;;8377943;28;20020;-69
2023/03/21 04:47:19;;;;;;;;;;;9.30;99.90;;;;;;8377492;28;19934;-69
2023/03/21 04:51:20;;;;;;;;;;;9.30;99.90;;;;;;8382618;28;20012;-69
2023/03/21 04:55:23;;;;;;;;;;;9.30;99.90;;;;;;8384180;28;19925;-69
2023/03/21 04:59:25;;;;;;;;;;;9.30;99.90;;;;;;8364812;28;19930;-69
2023/03/21 05:03:28;;;;;;;;;;;9.20;99.90;;;;;;8378458;28;20517;-69
2023/03/21 05:07:31;;;;;;;;;;;9.20;99.90;;;;;;8384466;28;19925;-69
2023/03/21 05:11:36;;;;;;;;;;;9.30;99.90;;;;;;8381165;28;20016;-69
2023/03/21 05:15:38;;;;;;;;;;;9.30;99.90;;;;;;8393337;28;19936;-69
2023/03/21 05:19:40;;;;;;;;;;;9.30;99.90;;;;;;8382755;28;19974;-69
2023/03/21 05:23:41;;;;;;;;;;;9.30;99.90;;;;;;8386234;28;19933;-69
2023/03/21 05:27:44;;;;;;;;;;;9.30;99.90;;;;;;8382987;28;20010;-69
2023/03/21 05:31:45;;;;;;;;;;;9.30;99.90;;;;;;8399190;28;19928;-69
2023/03/21 05:35:49;;;;;;;;;;;9.30;99.90;;;;;;8384080;28;19931;-69
2023/03/21 05:50:12;;;;;;;;;;;9.30;99.90;;;;;;8361415;28;19923;-69
2023/03/21 05:54:15;;;;;;;;;;;9.30;99.90;;;;;;8387862;28;19971;-69
2023/03/21 05:58:17;;;;;;;;;;;9.30;99.90;;;;;;8368027;28;19924;-69
2023/03/21 06:02:18;;;;;;;;;;;9.30;99.90;;;;;;8382533;28;20199;-69
2023/03/21 06:06:20;;;;;;;;;;;9.30;99.90;;;;;;8383798;28;20284;-69
2023/03/21 06:10:22;;;;;;;;;;;9.30;99.90;;;;;;8406579;28;19932;-69
2023/03/21 06:14:24;;;;;;;;;;;9.30;99.90;;;;;;8385667;28;19935;-69
2023/03/21 06:18:26;;;;;;;;;;;9.40;99.90;;;;;;8383162;28;19935;-69
2023/03/21 06:22:28;;;;;;;;;;;9.40;99.90;;;;;;8384888;28;19932;-69
2023/03/21 06:26:30;;;;;;;;;;;9.40;99.90;;;;;;8398387;28;19932;-69
2023/03/21 06:30:31;;;;;;;;;;;9.40;99.90;;;;;;8390742;28;19929;-69
2023/03/21 06:34:33;;;;;;;;;;;9.40;99.90;;;;;;8389060;28;19971;-69
2023/03/21 06:38:36;;;;;;;;;;;9.40;99.90;;;;;;8387951;28;19932;-69
2023/03/21 06:42:38;;;;;;;;;;;9.50;99.90;;;;;;8386440;28;20402;-69
2023/03/21 06:46:40;;;;;;;;;;;9.50;99.90;;;;;;8386688;28;19925;-69
2023/03/21 06:50:41;;;;;;;;;;;9.50;99.90;;;;;;8366196;28;19925;-69
2023/03/21 06:54:43;;;;;;;;;;;9.50;99.90;;;;;;8394531;28;19929;-69
2023/03/21 06:58:45;;;;;;;;;;;9.60;99.90;;;;;;8396419;28;19924;-69
2023/03/21 07:02:47;;;;;;;;;;;9.60;99.90;;;;;;8380883;28;20327;-69
2023/03/21 07:06:51;;;;;;;;;;;9.60;99.90;;;;;;8389019;28;19935;-69
2023/03/21 07:10:54;;;;;;;;;;;9.60;99.90;;;;;;8395317;28;20295;-69
2023/03/21 07:14:56;;;;;;;;;;;9.60;99.90;;;;;;8369019;28;19929;-69
2023/03/21 07:18:58;;;;;;;;;;;9.70;99.90;;;;;;8396268;28;19924;-69
2023/03/21 07:22:59;;;;;;;;;;;9.70;99.90;;;;;;8389718;28;19924;-69
2023/03/21 07:27:01;;;;;;;;;;;9.70;99.90;;;;;;8389524;28;20017;-69
2023/03/21 07:31:04;;;;;;;;;;;9.70;99.90;;;;;;8397286;28;20295;-69
2023/03/21 07:35:07;;;;;;;;;;;9.70;99.90;;;;;;8392244;28;19986;-69
2023/03/21 07:39:08;;;;;;;;;;;9.70;99.90;;;;;;8382922;28;19935;-68
2023/03/21 07:43:10;;;;;;;;;;;9.70;99.90;;;;;;8381113;28;19931;-68
2023/03/21 07:47:12;;;;;;;;;;;9.70;99.90;;;;;;8390873;28;19924;-69
2023/03/21 07:51:14;;;;;;;;;;;9.70;99.90;;;;;;8377841;28;20019;-69
2023/03/21 07:55:16;;;;;;;;;;;9.70;99.90;;;;;;8362238;28;19925;-69
2023/03/21 07:59:17;;;;;;;;;;;9.70;99.90;;;;;;8349328;28;19968;-69
2023/03/21 08:03:20;;;;;;;;;;;9.80;99.90;;;;;;8355903;28;19929;-69
2023/03/21 08:07:21;;;;;;;;;;;9.80;99.90;;;;;;8358256;28;19950;-69
2023/03/21 08:11:23;;;;;;;;;;;9.80;99.90;;;;;;8357419;28;20362;-69
2023/03/21 08:15:25;;;;;;;;;;;9.80;99.90;;;;;;8364723;28;19924;-69
2023/03/21 08:19:27;;;;;;;;;;;9.80;99.90;;;;;;8356245;28;19970;-69
2023/03/21 08:23:28;;;;;;;;;;;9.80;99.90;;;;;;8355401;28;19924;-69
2023/03/21 08:27:31;;;;;;;;;;;9.90;99.90;;;;;;8358784;28;19968;-69
2023/03/21 08:31:32;;;;;;;;;;;9.90;99.90;;;;;;8361293;28;19932;-68
2023/03/21 08:35:34;;;;;;;;;;;9.90;99.90;;;;;;8349677;28;19932;-69
2023/03/21 08:39:36;;;;;;;;;;;10.00;99.90;;;;;;8354243;28;19979;-69
2023/03/21 08:43:38;;;;;;;;;;;10.00;99.90;;;;;;8355435;28;19925;-68
2023/03/21 08:47:39;;;;;;;;;;;10.00;99.90;;;;;;8349906;28;20015;-68
2023/03/21 08:51:44;;;;;;;;;;;10.10;99.90;;;;;;8387985;28;19932;-69
2023/03/21 08:55:48;;;;;;;;;;;10.20;99.90;;;;;;8389104;28;19932;-69
2023/03/21 08:59:49;;;;;;;;;;;10.30;99.90;;;;;;8383577;28;20027;-68
2023/03/21 09:03:51;;;;;;;;;;;10.40;99.90;;;;;;8385865;28;19925;-69
2023/03/21 09:07:53;;;;;;;;;;;10.40;99.90;;;;;;8390649;28;19975;-69
2023/03/21 09:11:54;;;;;;;;;;;10.40;99.90;;;;;;8387975;28;19924;-69
2023/03/21 09:16:00;;;;;;;;;;;10.40;99.90;;;;;;8386146;28;19986;-69
2023/03/21 09:20:10;;;;;;;;;;;10.40;99.90;;;;;;8379206;28;20012;-69
2023/03/21 09:24:12;;;;;;;;;;;10.50;99.90;;;;;;8391074;28;19975;-69
2023/03/21 09:28:15;;;;;;;;;;;10.50;99.90;;;;;;8401154;28;19928;-69
2023/03/21 09:32:17;;;;;;;;;;;10.60;99.90;;;;;;8382761;28;19951;-69
2023/03/21 09:36:20;;;;;;;;;;;10.60;99.90;;;;;;8386379;28;20313;-69
2023/03/21 09:40:29;;;;;;;;;;;10.70;99.90;;;;;;8377765;28;20035;-68
2023/03/21 09:44:36;;;;;;;;;;;10.70;99.90;;;;;;8382576;28;19954;-69
2023/03/21 09:48:45;;;;;;;;;;;10.80;99.90;;;;;;8386421;28;19928;-69
2023/03/21 09:52:59;;;;;;;;;;;10.80;99.90;;;;;;8382282;28;19925;-69
2023/03/21 09:57:06;;;;;;;;;;;10.80;99.90;;;;;;8385526;28;20279;-69
2023/03/21 10:01:28;;;;;;;;;;;10.90;99.90;;;;;;8382503;28;20340;-69
2023/03/21 10:05:31;;;;;;;;;;;10.90;99.90;;;;;;8386480;28;19928;-69
2023/03/21 10:09:33;;;;;;;;;;;11.00;99.90;;;;;;8371983;28;19925;-69
2023/03/21 10:13:39;;;;;;;;;;;11.10;99.90;;;;;;8382458;28;19924;-69
2023/03/21 10:17:43;;;;;;;;;;;11.20;99.90;;;;;;8400285;28;20295;-69
2023/03/21 10:21:46;;;;;;;;;;;11.30;99.90;;;;;;8387274;28;20399;-69
2023/03/21 10:26:04;;;;;;;;;;;11.40;99.90;;;;;;8382240;28;19970;-69
2023/03/21 10:30:07;;;;;;;;;;;11.50;99.90;;;;;;8386278;28;19951;-69
2023/03/21 10:34:16;;;;;;;;;;;11.50;99.90;;;;;;8386511;28;19963;-69
2023/03/21 10:38:20;;;;;;;;;;;11.60;99.90;;;;;;8387065;28;19931;-69
2023/03/21 10:42:30;;;;;;;;;;;11.70;99.90;;;;;;8373935;28;19925;-69
2023/03/21 10:46:32;;;;;;;;;;;11.70;99.90;;;;;;8383663;28;19932;-69
2023/03/21 10:50:36;;;;;;;;;;;11.80;99.90;;;;;;8385527;28;19975;-69
2023/03/21 10:54:38;;;;;;;;;;;11.80;99.90;;;;;;8383223;28;19928;-69
2023/03/21 10:58:43;;;;;;;;;;;11.80;99.90;;;;;;8386038;28;19928;-69
2023/03/21 11:02:47;;;;;;;;;;;11.80;99.90;;;;;;8402725;28;19928;-69
2023/03/21 11:06:53;;;;;;;;;;;11.90;99.90;;;;;;8388824;28;20288;-69
2023/03/21 11:11:01;;;;;;;;;;;11.90;99.90;;;;;;8394068;28;19925;-69
2023/03/21 11:15:21;;;;;;;;;;;12.00;99.90;;;;;;8382241;28;19935;-69
2023/03/21 11:19:31;;;;;;;;;;;12.10;99.90;;;;;;8397047;28;19977;-69
2023/03/21 11:23:34;;;;;;;;;;;12.30;99.90;;;;;;8394325;28;20307;-69
2023/03/21 11:27:35;;;;;;;;;;;12.40;99.90;;;;;;8387814;28;20372;-69
2023/03/21 11:31:38;;;;;;;;;;;12.60;99.90;;;;;;8389571;28;19931;-69
2023/03/21 11:35:40;;;;;;;;;;;12.70;99.90;;;;;;8393379;28;20002;-69
2023/03/21 11:40:13;;;;;;;;;;;12.70;99.90;;;;;;8383025;28;19931;-69
2023/03/21 11:44:29;;;;;;;;;;;12.80;99.90;;;;;;8368189;28;21000;-69
2023/03/21 11:48:35;;;;;;;;;;;12.80;99.90;;;;;;8372155;28;19928;-69
2023/03/21 11:52:49;;;;;;;;;;;12.90;99.90;;;;;;8343787;28;19932;-69
2023/03/21 11:56:59;;;;;;;;;;;12.80;99.90;;;;;;8359737;28;20504;-69
2023/03/21 12:01:11;;;;;;;;;;;12.70;99.90;;;;;;8359138;28;19944;-69
2023/03/21 12:05:20;;;;;;;;;;;12.60;99.90;;;;;;8373856;28;20304;-69
2023/03/21 12:09:32;;;;;;;;;;;12.50;99.90;;;;;;8343086;28;19925;-69
2023/03/21 12:13:46;;;;;;;;;;;12.40;99.90;;;;;;8358906;28;20400;-68
2023/03/21 12:17:48;;;;;;;;;;;12.50;99.90;;;;;;8358720;28;19943;-69
2023/03/21 12:21:59;;;;;;;;;;;12.50;99.90;;;;;;8344619;28;19979;-69
2023/03/21 12:26:21;;;;;;;;;;;12.50;99.90;;;;;;8368750;28;19995;-69
2023/03/21 12:30:45;;;;;;;;;;;12.60;99.90;;;;;;8352781;28;19935;-69
2023/03/21 12:34:59;;;;;;;;;;;12.60;99.90;;;;;;8362041;28;19944;-69
2023/03/21 12:39:11;;;;;;;;;;;12.60;99.90;;;;;;8384677;28;19928;-69
2023/03/21 12:43:25;;;;;;;;;;;12.70;99.90;;;;;;8366619;28;19929;-69
2023/03/21 12:47:28;;;;;;;;;;;13.10;99.90;;;;;;8356894;28;19936;-69
2023/03/21 12:51:32;;;;;;;;;;;13.70;99.90;;;;;;8355996;28;19924;-69
2023/03/21 12:55:34;;;;;;;;;;;14.00;99.90;;;;;;8355899;28;20384;-69
2023/03/21 12:59:59;;;;;;;;;;;14.00;99.90;;;;;;8354944;28;20011;-69
2023/03/21 13:04:27;;;;;;;;;;;14.30;99.90;;;;;;8335293;28;20391;-69
2023/03/21 13:08:32;;;;;;;;;;;14.30;99.90;;;;;;8352599;28;19925;-69
2023/03/21 13:12:54;;;;;;;;;;;14.20;99.90;;;;;;8354032;28;19933;-69
2023/03/21 13:17:09;;;;;;;;;;;14.10;99.90;;;;;;8356133;28;19952;-69
2023/03/21 13:21:16;;;;;;;;;;;14.00;99.90;;;;;;8370193;28;20435;-69
2023/03/21 13:25:22;;;;;;;;;;;13.90;99.90;;;;;;8349676;28;20415;-69
2023/03/21 13:29:30;;;;;;;;;;;13.90;99.90;;;;;;8342234;28;19929;-69
2023/03/21 13:33:33;;;;;;;;;;;13.80;99.90;;;;;;8360144;28;20019;-69
2023/03/21 13:37:38;;;;;;;;;;;13.80;99.90;;;;;;8357792;28;20391;-69
2023/03/21 13:41:42;;;;;;;;;;;13.80;99.90;;;;;;8354202;28;19979;-69
2023/03/21 13:45:45;;;;;;;;;;;13.80;99.90;;;;;;8346350;28;20019;-69
2023/03/21 13:50:06;;;;;;;;;;;13.80;99.90;;;;;;8368989;28;19928;-69
2023/03/21 13:54:16;;;;;;;;;;;13.70;99.90;;;;;;8347477;28;19935;-69
2023/03/21 13:58:22;;;;;;;;;;;13.60;99.90;;;;;;8362121;28;20048;-69
2023/03/21 14:02:23;;;;;;;;;;;13.60;99.90;;;;;;8358339;28;19939;-69
2023/03/21 14:06:37;;;;;;;;;;;13.60;99.90;;;;;;8364771;28;19933;-69
2023/03/21 14:10:42;;;;;;;;;;;13.60;99.90;;;;;;8377935;28;19925;-69
2023/03/21 14:14:49;;;;;;;;;;;13.60;99.90;;;;;;8353270;28;19933;-69
2023/03/21 14:18:53;;;;;;;;;;;13.70;99.90;;;;;;8357493;28;19971;-69
2023/03/21 14:22:56;;;;;;;;;;;13.70;99.90;;;;;;8344828;28;20277;-69
2023/03/21 14:27:00;;;;;;;;;;;13.70;99.90;;;;;;8371101;28;20001;-69
2023/03/21 14:31:02;;;;;;;;;;;13.60;99.90;;;;;;8369317;28;19997;-69
2023/03/21 14:35:10;;;;;;;;;;;13.60;99.90;;;;;;8364218;28;20269;-69
2023/03/21 14:39:31;;;;;;;;;;;13.60;99.90;;;;;;8353689;28;19928;-69
2023/03/21 14:43:33;;;;;;;;;;;13.50;99.90;;;;;;8356777;28;20332;-69
2023/03/21 14:47:41;;;;;;;;;;;13.50;99.90;;;;;;8351545;28;20695;-69
2023/03/21 14:51:44;;;;;;;;;;;13.60;99.90;;;;;;8347044;28;19968;-69
2023/03/21 14:55:50;;;;;;;;;;;13.70;99.90;;;;;;8369229;28;20047;-69
2023/03/21 14:59:53;;;;;;;;;;;13.70;99.90;;;;;;8364333;28;19983;-70
2023/03/21 15:03:56;;;;;;;;;;;13.60;99.90;;;;;;8371802;28;19928;-69
2023/03/21 15:08:06;;;;;;;;;;;13.60;99.90;;;;;;8365331;28;19925;-69
2023/03/21 15:12:08;;;;;;;;;;;13.50;99.90;;;;;;8345659;28;19925;-69
2023/03/21 15:16:10;;;;;;;;;;;13.50;99.90;;;;;;8359875;28;19929;-69
2023/03/21 15:20:14;;;;;;;;;;;13.60;99.90;;;;;;8358342;28;19929;-69
2023/03/21 15:24:19;;;;;;;;;;;13.60;99.90;;;;;;8377427;28;19924;-69
2023/03/21 15:28:21;;;;;;;;;;;13.50;99.90;;;;;;8368994;28;20324;-69
2023/03/21 15:32:24;;;;;;;;;;;13.50;99.90;;;;;;8370149;28;20003;-69
2023/03/21 15:36:27;;;;;;;;;;;13.50;99.90;;;;;;8364899;28;19928;-69
2023/03/21 15:40:31;;;;;;;;;;;13.40;99.90;;;;;;8352760;28;19928;-69
2023/03/21 15:44:33;;;;;;;;;;;13.50;99.90;;;;;;8365393;28;19935;-69
2023/03/21 15:48:35;;;;;;;;;;;13.50;99.90;;;;;;8355687;28;19929;-69
2023/03/21 15:52:37;;;;;;;;;;;13.50;99.90;;;;;;8357234;28;19935;-69
2023/03/21 15:56:41;;;;;;;;;;;13.40;99.90;;;;;;8345313;28;20001;-69
2023/03/21 16:00:50;;;;;;;;;;;13.40;99.90;;;;;;8359643;28;19972;-69
2023/03/21 16:05:14;;;;;;;;;;;13.30;99.90;;;;;;8354796;28;19932;-69
2023/03/21 16:09:22;;;;;;;;;;;13.20;99.90;;;;;;8339902;28;19929;-69
2023/03/21 16:13:23;;;;;;;;;;;13.20;99.90;;;;;;8358444;28;19991;-69
2023/03/21 16:17:35;;;;;;;;;;;13.10;99.90;;;;;;8340981;28;19988;-69
2023/03/21 16:21:37;;;;;;;;;;;13.10;99.90;;;;;;8340107;28;19939;-69
2023/03/21 16:25:39;;;;;;;;;;;12.90;99.90;;;;;;8360072;28;19947;-69
2023/03/21 16:29:41;;;;;;;;;;;12.60;99.90;;;;;;8360021;28;19928;-69
2023/03/21 16:33:52;;;;;;;;;;;12.40;99.90;;;;;;8354498;28;19929;-69
2023/03/21 16:37:54;;;;;;;;;;;12.30;99.90;;;;;;8357919;28;19924;-69
2023/03/21 16:41:55;;;;;;;;;;;12.10;99.90;;;;;;8361397;28;20039;-69
2023/03/21 16:45:57;;;;;;;;;;;12.00;99.90;;;;;;8362653;28;19932;-69
2023/03/21 16:49:59;;;;;;;;;;;11.90;99.90;;;;;;8356743;28;20334;-69
2023/03/21 16:54:01;;;;;;;;;;;11.90;99.90;;;;;;8354901;28;19976;-69
2023/03/21 16:58:03;;;;;;;;;;;11.90;99.90;;;;;;8354205;28;20054;-69
2023/03/21 17:02:11;;;;;;;;;;;12.00;99.90;;;;;;8351913;28;20023;-69
2023/03/21 17:06:14;;;;;;;;;;;12.10;99.90;;;;;;8356155;28;20323;-69
2023/03/21 17:10:18;;;;;;;;;;;12.40;99.90;;;;;;8354043;28;19947;-69
2023/03/21 17:14:21;;;;;;;;;;;12.60;99.90;;;;;;8344103;28;19939;-69
2023/03/21 17:18:22;;;;;;;;;;;12.70;99.90;;;;;;8345231;28;19939;-69
2023/03/21 17:22:24;;;;;;;;;;;12.60;99.90;;;;;;8356512;28;19924;-69
2023/03/21 17:26:27;;;;;;;;;;;12.40;99.90;;;;;;8354515;28;19929;-69
2023/03/21 17:30:30;;;;;;;;;;;12.30;99.90;;;;;;8365029;28;19931;-69
2023/03/21 17:34:31;;;;;;;;;;;12.10;99.90;;;;;;8364681;28;19966;-69
2023/03/21 17:38:33;;;;;;;;;;;12.10;99.90;;;;;;8370181;28;19925;-69
2023/03/21 17:42:35;;;;;;;;;;;12.00;99.90;;;;;;8356149;28;19924;-69
2023/03/21 17:46:36;;;;;;;;;;;12.00;99.90;;;;;;8352951;28;20304;-69
2023/03/21 17:50:38;;;;;;;;;;;12.00;99.90;;;;;;8359195;28;19939;-69
2023/03/21 17:54:40;;;;;;;;;;;11.90;99.90;;;;;;8359087;28;19962;-69
2023/03/21 17:58:42;;;;;;;;;;;11.90;99.90;;;;;;8369530;28;19928;-69
2023/03/21 18:02:44;;;;;;;;;;;11.90;99.90;;;;;;8361972;28;19947;-69
2023/03/21 18:06:46;;;;;;;;;;;11.90;99.90;;;;;;8366666;28;19925;-69
2023/03/21 18:10:48;;;;;;;;;;;11.90;99.90;;;;;;8354817;28;19925;-69
2023/03/21 18:14:50;;;;;;;;;;;11.90;99.90;;;;;;8338441;28;20441;-69
2023/03/21 18:18:52;;;;;;;;;;;11.90;99.90;;;;;;8351237;28;20379;-69
2023/03/21 18:22:54;;;;;;;;;;;11.80;99.90;;;;;;8353741;28;19929;-69
2023/03/21 18:26:55;;;;;;;;;;;11.80;99.90;;;;;;8359504;28;19975;-69
2023/03/21 18:30:57;;;;;;;;;;;11.80;99.90;;;;;;8367978;28;20460;-69
2023/03/21 18:35:14;;;;;;;;;;;11.80;99.90;;;;;;8357878;28;19925;-69
2023/03/21 18:39:16;;;;;;;;;;;11.80;99.90;;;;;;8364459;28;19925;-69
2023/03/21 18:43:18;;;;;;;;;;;11.80;99.90;;;;;;8360709;28;20354;-69
2023/03/21 18:47:39;;;;;;;;;;;11.70;99.90;;;;;;8351449;28;19947;-69
2023/03/21 18:51:43;;;;;;;;;;;11.70;99.90;;;;;;8337605;28;20027;-69
2023/03/21 18:55:45;;;;;;;;;;;11.70;99.90;;;;;;8355912;28;20820;-69
2023/03/21 18:59:50;;;;;;;;;;;11.70;99.90;;;;;;8358050;28;20350;-69
2023/03/21 19:03:58;;;;;;;;;;;11.70;99.90;;;;;;8340539;28;20352;-69
2023/03/21 19:08:20;;;;;;;;;;;11.70;99.90;;;;;;8361174;28;19928;-69
2023/03/21 19:12:21;;;;;;;;;;;11.60;99.90;;;;;;8353916;28;19948;-69
2023/03/21 19:16:23;;;;;;;;;;;11.50;99.90;;;;;;8345531;28;19933;-69
2023/03/21 19:20:30;;;;;;;;;;;11.50;99.90;;;;;;8361256;28;19939;-69
2023/03/21 19:24:31;;;;;;;;;;;11.50;99.90;;;;;;8360525;28;20572;-69
2023/03/21 19:28:33;;;;;;;;;;;11.40;99.90;;;;;;8360391;28;19990;-69
2023/03/21 19:32:35;;;;;;;;;;;11.30;99.90;;;;;;8359690;28;19947;-69
2023/03/21 19:36:37;;;;;;;;;;;11.30;99.90;;;;;;8343309;28;20411;-69
2023/03/21 19:40:39;;;;;;;;;;;11.20;99.90;;;;;;8360759;28;20277;-69
2023/03/21 19:44:41;;;;;;;;;;;11.10;99.90;;;;;;8351680;28;19925;-69
2023/03/21 19:48:43;;;;;;;;;;;11.10;99.90;;;;;;8359898;28;19925;-69
2023/03/21 19:52:45;;;;;;;;;;;11.10;99.90;;;;;;8360451;28;20297;-69
2023/03/21 19:56:47;;;;;;;;;;;11.10;99.90;;;;;;8362059;28;19935;-69
2023/03/21 20:00:49;;;;;;;;;;;11.20;99.90;;;;;;8362620;28;20372;-69
2023/03/21 20:04:50;;;;;;;;;;;11.30;99.90;;;;;;8366915;28;19978;-69
2023/03/21 20:08:52;;;;;;;;;;;11.30;99.90;;;;;;8363806;28;19932;-69
2023/03/21 20:13:14;;;;;;;;;;;11.30;99.90;;;;;;8360305;28;19928;-69
2023/03/21 20:17:16;;;;;;;;;;;11.20;99.90;;;;;;8357260;28;19925;-69
2023/03/21 20:21:18;;;;;;;;;;;11.20;99.90;;;;;;8361102;28;19982;-69
2023/03/21 20:25:26;;;;;;;;;;;11.10;99.90;;;;;;8356483;28;19929;-69
2023/03/21 20:29:27;;;;;;;;;;;11.00;99.90;;;;;;8357892;28;19939;-69
2023/03/21 20:33:51;;;;;;;;;;;11.00;99.90;;;;;;8374975;28;19932;-69
2023/03/21 20:37:52;;;;;;;;;;;10.90;99.90;;;;;;8363329;28;19937;-69
2023/03/21 20:41:54;;;;;;;;;;;10.90;99.90;;;;;;8354476;28;19968;-69
2023/03/21 20:46:22;;;;;;;;;;;10.90;99.90;;;;;;8359117;28;20380;-69
2023/03/21 20:50:24;;;;;;;;;;;10.80;99.90;;;;;;8349587;28;19991;-69
2023/03/21 20:54:26;;;;;;;;;;;10.80;99.90;;;;;;8336952;28;19924;-69
2023/03/21 20:58:29;;;;;;;;;;;10.80;99.90;;;;;;8361573;28;19924;-69
2023/03/21 21:02:50;;;;;;;;;;;10.80;99.90;;;;;;8359208;28;20376;-69
2023/03/21 21:06:52;;;;;;;;;;;10.70;99.90;;;;;;8372254;28;21778;-69
2023/03/21 21:10:54;;;;;;;;;;;10.70;99.90;;;;;;8357300;28;19925;-69
2023/03/21 21:15:16;;;;;;;;;;;10.70;99.90;;;;;;8360227;28;20356;-69
2023/03/21 21:19:20;;;;;;;;;;;10.70;99.90;;;;;;8351752;28;19924;-69
2023/03/21 21:23:22;;;;;;;;;;;10.70;99.90;;;;;;8357107;28;19925;-69
2023/03/21 21:27:25;;;;;;;;;;;10.60;99.90;;;;;;8358749;28;19940;-69
2023/03/21 21:31:27;;;;;;;;;;;10.60;99.90;;;;;;8357708;28;19929;-69
2023/03/21 21:35:29;;;;;;;;;;;10.50;99.90;;;;;;8356045;28;20320;-69
2023/03/21 21:39:36;;;;;;;;;;;10.50;99.90;;;;;;8355221;28;19925;-69
2023/03/21 21:43:38;;;;;;;;;;;10.50;99.90;;;;;;8362533;28;20411;-69
2023/03/21 21:47:41;;;;;;;;;;;10.50;99.90;;;;;;8352975;28;19933;-69
2023/03/21 21:51:44;;;;;;;;;;;10.50;99.90;;;;;;8353068;28;19933;-69
2023/03/21 21:55:48;;;;;;;;;;;10.50;99.90;;;;;;8355897;28;19929;-69
2023/03/21 21:59:52;;;;;;;;;;;10.50;99.90;;;;;;8352774;28;19932;-69
2023/03/21 22:03:56;;;;;;;;;;;10.50;99.90;;;;;;8377220;28;19925;-69
2023/03/21 22:07:58;;;;;;;;;;;10.50;99.90;;;;;;8378235;28;19933;-69
2023/03/21 22:11:59;;;;;;;;;;;10.50;99.90;;;;;;8380398;28;19924;-69
2023/03/21 22:16:01;;;;;;;;;;;10.50;99.90;;;;;;8366613;28;19932;-69
2023/03/21 22:20:08;;;;;;;;;;;10.50;99.90;;;;;;8376639;28;19932;-69
2023/03/21 22:24:09;;;;;;;;;;;10.50;99.90;;;;;;8376844;28;19925;-69
2023/03/21 22:28:11;;;;;;;;;;;10.50;99.90;;;;;;8366005;28;19931;-69
2023/03/21 22:32:13;;;;;;;;;;;10.40;99.90;;;;;;8378265;28;20317;-69
2023/03/21 22:36:14;;;;;;;;;;;10.40;99.90;;;;;;8377050;28;20309;-69
2023/03/21 22:40:16;;;;;;;;;;;10.40;99.90;;;;;;8377362;28;19990;-69
2023/03/21 22:44:18;;;;;;;;;;;10.40;99.90;;;;;;8383422;28;19925;-69
2023/03/21 22:48:20;;;;;;;;;;;10.30;99.90;;;;;;8378077;28;19932;-69
2023/03/21 22:52:22;;;;;;;;;;;10.30;99.90;;;;;;8383908;28;19983;-69
2023/03/21 22:56:23;;;;;;;;;;;10.20;99.90;;;;;;8385349;28;19940;-69
2023/03/21 23:00:25;;;;;;;;;;;10.20;99.90;;;;;;8386892;28;19975;-69
2023/03/21 23:04:27;;;;;;;;;;;10.20;99.90;;;;;;8383989;28;19931;-69
2023/03/21 23:08:29;;;;;;;;;;;10.20;99.90;;;;;;8381236;28;19972;-69
2023/03/21 23:12:31;;;;;;;;;;;10.10;99.90;;;;;;8384186;28;19960;-69
2023/03/21 23:16:33;;;;;;;;;;;10.10;99.90;;;;;;8380471;28;19931;-69
2023/03/21 23:20:35;;;;;;;;;;;10.10;99.90;;;;;;8379117;28;20015;-69
2023/03/21 23:24:36;;;;;;;;;;;10.10;99.90;;;;;;8385293;28;19932;-69
2023/03/21 23:28:38;;;;;;;;;;;10.00;99.90;;;;;;8378826;28;20430;-69
2023/03/21 23:32:40;;;;;;;;;;;10.00;99.90;;;;;;8380650;28;19928;-69
2023/03/21 23:36:42;;;;;;;;;;;10.00;99.90;;;;;;8385434;28;19970;-69
2023/03/21 23:40:43;;;;;;;;;;;10.00;99.90;;;;;;8360342;28;19929;-69
2023/03/21 23:44:45;;;;;;;;;;;10.00;99.90;;;;;;8404400;28;19932;-69
2023/03/21 23:48:47;;;;;;;;;;;9.90;99.90;;;;;;8399643;28;19978;-69
2023/03/21 23:52:49;;;;;;;;;;;9.90;99.90;;;;;;8388056;28;19928;-69
2023/03/21 23:56:50;;;;;;;;;;;9.90;99.90;;;;;;8391932;28;19972;-69
